Kapitan Dranitsyn — UCJP — position and weather

sailwx.info

Track history (hours):
 
Tides and Currents Weather Stations Pressure Air Temp Water Temp Dewpoint Dewpoint Depression Visibility Wind Speed Wind Dir Waves Ship Positions

Oceanographic research ship Kapitan Dranitsyn (Russia)

Detailed information on ship capabilities available from ARCUS's ALIAS (Arctic Logistics Information and Support) project.

Last reported at 2020-Mar-31 05:00 UTC. Time now 2020-Mar-31 06:13 UTC.
Position N 69°41' E 019°00'.

Length 132 m; beam 27 m.

Type: Other ship. MMSI: 273138300.

Date/timePositionNaut miles runAvg speedWind from/ knotsBaromVisibWave heightAir tempDewpointWater temp
2020-Mar-31 05:00N 69°41' E 019°00'3 6.9
2020-Mar-31 04:30N 69°44' E 019°03'1514.6
2020-Mar-31 03:30N 69°50' E 019°41'2911.8
2020-Mar-31 01:01N 70°16' E 020°23'13 8.7
2020-Mar-30 23:30N 70°27' E 020°42'17 8.3
2020-Mar-30 21:30N 70°42' E 021°06'4 7.6
2020-Mar-30 21:00N 70°45' E 021°12'3810.8
2020-Mar-30 17:30N 71°22' E 020°46'1211.7
2020-Mar-30 16:30N 71°34' E 020°51'3014.9
2020-Mar-30 14:30N 71°46' E 022°16'714.1
2020-Mar-30 14:00N 71°48' E 022°38'2813.9
2020-Mar-30 12:00N 71°54' E 024°06'1912.8
2020-Mar-30 10:30N 71°58' E 025°05'2110.6
2020-Mar-30 08:30N 72°16' E 025°43'  
Track history (hours):
 
Tides and Currents Weather Stations Pressure Air Temp Water Temp Dewpoint Dewpoint Depression Visibility Wind Speed Wind Dir Waves Ship Positions

Oceanographic research ship Kapitan Dranitsyn (Russia)

Detailed information on ship capabilities available from ARCUS's ALIAS (Arctic Logistics Information and Support) project.

Last reported at 2020-Mar-31 05:00 UTC. Time now 2020-Mar-31 06:13 UTC.
Position N 69°41' E 019°00'.

Length 132 m; beam 27 m.

Type: Other ship. MMSI: 273138300.

Date/timePositionNaut miles runAvg speedWind from/ knotsBaromVisibWave heightAir tempDewpointWater temp
2020-Mar-31 05:00N 69°41' E 019°00'3 6.9
2020-Mar-31 04:30N 69°44' E 019°03'1514.6
2020-Mar-31 03:30N 69°50' E 019°41'2911.8
2020-Mar-31 01:01N 70°16' E 020°23'13 8.7
2020-Mar-30 23:30N 70°27' E 020°42'17 8.3
2020-Mar-30 21:30N 70°42' E 021°06'4 7.6
2020-Mar-30 21:00N 70°45' E 021°12'3810.8
2020-Mar-30 17:30N 71°22' E 020°46'1211.7
2020-Mar-30 16:30N 71°34' E 020°51'3014.9
2020-Mar-30 14:30N 71°46' E 022°16'714.1
2020-Mar-30 14:00N 71°48' E 022°38'2813.9
2020-Mar-30 12:00N 71°54' E 024°06'1912.8
2020-Mar-30 10:30N 71°58' E 025°05'2110.6
2020-Mar-30 08:30N 72°16' E 025°43'  

Dump ship's entire track history